Time;durP1;ratioP1;P1;durP2;ratioP2;P2;SDS_P1;SDS_P2;PMS_P1;PMS_P2;Temp;Humidity;BMP_temperature;BMP_pressure;BME280_temperature;BME280_humidity;BME280_pressure;Samples;Min_cycle;Max_cycle;Signal;HPM_P1;HPM_P2
2022/12/23 00:01:34;;;;;;;5.33;4.40;;;7.80;99.90;;;-141.84;90.91;18094.84;5052111;28;20228;-59
2022/12/23 00:04:02;;;;;;;5.23;4.30;;;7.80;99.90;;;-141.84;91.45;18090.78;5052350;28;20656;-59
2022/12/23 00:06:30;;;;;;;4.77;4.23;;;7.80;99.90;;;-141.84;91.75;18092.81;5051814;28;20236;-60
2022/12/23 00:08:59;;;;;;;8.10;4.83;;;7.80;99.90;;;-141.84;90.80;18155.78;5055587;28;20193;-60
2022/12/23 00:11:28;;;;;;;7.20;4.57;;;7.90;99.90;;;-141.84;89.50;18141.56;5072664;28;20220;-59
2022/12/23 00:16:50;;;;;;;5.20;4.40;;;7.90;99.90;;;-141.84;89.27;18117.19;5051940;28;20732;-59
2022/12/23 00:19:19;;;;;;;5.23;3.97;;;8.00;99.90;;;-141.84;87.60;18157.81;5051209;28;20235;-61
2022/12/23 00:21:47;;;;;;;4.63;4.13;;;8.10;99.90;;;-141.84;87.99;18155.78;5051357;28;20225;-59
2022/12/23 00:24:16;;;;;;;5.37;4.13;;;8.10;99.90;;;-141.84;87.81;18135.47;5052062;28;20248;-59
2022/12/23 00:26:44;;;;;;;5.33;3.93;;;8.10;99.90;;;-141.84;88.32;18133.44;5052340;28;20229;-60
2022/12/23 00:29:12;;;;;;;4.97;3.80;;;8.10;99.90;;;-141.84;88.13;18133.44;5051123;28;20627;-57
2022/12/23 00:31:40;;;;;;;4.53;3.83;;;8.10;99.90;;;-141.84;87.24;18200.47;5051649;28;20915;-58
2022/12/23 00:34:12;;;;;;;4.30;3.40;;;8.20;99.90;;;-141.84;87.43;18155.78;5051308;28;20778;-60
2022/12/23 00:36:40;;;;;;;4.67;3.87;;;8.20;99.90;;;-141.84;87.87;18131.41;5051010;28;20336;-59
2022/12/23 00:44:44;;;;;;;3.47;3.17;;;8.30;99.90;;;-141.84;85.52;18165.94;5051978;28;20188;-59
2022/12/23 00:49:40;;;;;;;4.23;3.10;;;8.40;99.90;;;-141.84;86.62;18210.63;5050889;28;20225;-59
2022/12/23 00:50:02;;;;;;;3.13;2.83;;;8.30;99.90;;;-141.84;87.35;18184.22;5051037;28;20221;-60
2022/12/23 00:52:30;;;;;;;3.40;3.10;;;8.30;99.90;;;-141.84;88.06;18174.06;5050619;28;20229;-59
2022/12/23 00:54:58;;;;;;;4.73;2.93;;;8.30;99.90;;;-141.84;88.18;18196.41;5051116;28;20225;-59
2022/12/23 00:57:27;;;;;;;3.80;2.80;;;8.30;99.90;;;-141.84;87.15;18182.19;5050956;28;20313;-59
2022/12/23 00:59:55;;;;;;;3.13;2.80;;;8.30;99.90;;;-141.84;87.24;18184.22;5051289;28;20213;-59
2022/12/23 01:08:03;;;;;;;3.37;2.70;;;8.40;99.90;;;-141.84;86.88;18192.34;5050524;28;20570;-60
2022/12/23 01:10:31;;;;;;;4.37;3.00;;;8.30;99.90;;;-141.84;87.12;18182.19;5066644;28;20233;-58
2022/12/23 01:12:59;;;;;;;3.13;2.57;;;8.30;99.90;;;-141.84;87.18;18220.78;5065142;28;20221;-58
2022/12/23 01:15:28;;;;;;;3.30;2.80;;;8.30;99.90;;;-141.84;87.38;18216.72;5051137;28;20228;-60
2022/12/23 01:17:56;;;;;;;3.63;2.70;;;8.30;99.90;;;-141.84;87.81;18196.41;5050486;28;20197;-59
2022/12/23 01:20:26;;;;;;;3.70;2.30;;;8.30;99.90;;;-141.84;87.30;18214.69;5051072;28;20212;-60
2022/12/23 01:22:54;;;;;;;4.13;2.60;;;8.30;99.90;;;-141.84;87.65;18224.84;5050228;28;20229;-59
2022/12/23 01:25:22;;;;;;;3.87;2.60;;;8.30;99.90;;;-141.84;88.13;18163.91;5050563;28;20222;-60
2022/12/23 01:27:50;;;;;;;3.33;2.20;;;8.30;99.90;;;-141.84;86.29;18196.41;5049939;28;20240;-58
2022/12/23 01:30:19;;;;;;;5.77;2.47;;;8.40;99.90;;;-141.84;84.91;18243.16;5049024;28;20272;-59
2022/12/23 01:32:47;;;;;;;4.20;2.60;;;8.50;99.90;;;-141.84;85.29;18232.97;5050915;28;20209;-60
2022/12/23 01:35:15;;;;;;;2.80;2.20;;;8.40;99.90;;;-141.84;85.91;18216.72;5049976;28;20719;-59
2022/12/23 01:37:45;;;;;;;4.63;2.60;;;8.50;99.90;;;-141.84;86.80;18208.59;5049966;28;20882;-58
2022/12/23 01:40:13;;;;;;;3.03;2.40;;;8.40;99.90;;;-141.84;87.27;18237.06;5050243;28;20324;-60
2022/12/23 01:42:43;;;;;;;4.20;2.30;;;8.40;99.90;;;-141.84;87.49;18212.66;5050218;28;20224;-60
2022/12/23 01:45:18;;;;;;;3.83;2.20;;;8.40;99.90;;;-141.84;87.03;18204.53;5049895;28;20297;-59
2022/12/23 01:47:54;;;;;;;4.60;2.20;;;8.40;99.90;;;-141.84;86.64;18214.69;5050286;28;20232;-59
2022/12/23 01:50:31;;;;;;;4.47;2.20;;;8.40;99.90;;;-141.84;87.33;18226.88;5050608;28;20209;-61
2022/12/23 01:53:07;;;;;;;3.37;1.87;;;8.40;99.90;;;-141.84;87.67;18208.59;5049774;28;20248;-58
2022/12/23 01:55:42;;;;;;;4.67;2.20;;;8.40;99.90;;;-141.84;88.13;18161.88;5049980;28;20225;-60
2022/12/23 01:58:15;;;;;;;5.43;2.30;;;8.30;99.90;;;-141.84;87.87;18210.63;5049797;28;20224;-59
2022/12/23 02:03:44;;;;;;;3.13;2.00;;;8.40;99.90;;;-141.84;86.88;18230.94;5049668;28;20251;-59
2022/12/23 02:09:19;;;;;;;4.23;2.07;;;8.50;99.90;;;-141.84;87.09;18214.69;5054398;28;20574;-59
2022/12/23 02:12:37;;;;;;;4.80;2.13;;;8.50;99.90;;;-141.84;86.86;18196.41;5070010;28;20185;-59
2022/12/23 02:18:48;;;;;;;4.90;1.90;;;8.60;99.90;;;-141.84;87.67;18206.56;5029678;28;20217;-58
2022/12/23 02:21:38;;;;;;;3.43;1.90;;;8.50;99.90;;;-141.84;88.34;18196.41;5041798;28;20229;-59
2022/12/23 02:24:55;;;;;;;3.90;2.00;;;8.40;99.90;;;-141.84;89.50;18204.53;5049809;28;20189;-59
2022/12/23 02:27:30;;;;;;;5.13;2.20;;;8.30;99.90;;;-141.84;90.27;18159.84;5047207;28;20229;-59
2022/12/23 02:30:24;;;;;;;6.53;2.37;;;8.30;99.90;;;-141.84;90.36;18170.00;5049820;28;20657;-59
2022/12/23 02:33:37;;;;;;;3.87;2.30;;;8.30;99.90;;;-141.84;91.14;18119.22;5050656;28;20192;-59
2022/12/23 02:36:27;;;;;;;5.50;2.13;;;8.30;99.90;;;-141.84;91.18;18135.47;5042079;28;20225;-59
2022/12/23 02:39:05;;;;;;;5.60;2.43;;;8.20;99.90;;;-141.84;91.58;18115.16;5050390;28;20189;-57
2022/12/23 02:41:48;;;;;;;3.40;2.07;;;8.20;99.90;;;-141.84;91.67;18098.91;5050887;28;20192;-59
2022/12/23 02:44:29;;;;;;;5.77;2.40;;;8.20;99.90;;;-141.84;92.05;18113.13;5053016;28;20665;-60
2022/12/23 02:47:05;;;;;;;4.43;2.27;;;8.20;99.90;;;-141.84;91.28;18127.34;5054027;28;20291;-58
2022/12/23 02:49:38;;;;;;;6.07;2.20;;;8.20;99.90;;;-141.84;91.44;18111.09;5054118;28;20232;-60
2022/12/23 02:52:13;;;;;;;3.43;2.10;;;8.20;99.90;;;-141.84;92.26;18135.47;5053890;28;20236;-59
2022/12/23 02:54:50;;;;;;;4.27;2.30;;;8.10;99.90;;;-141.84;92.59;18082.66;5053885;28;20221;-60
2022/12/23 02:57:26;;;;;;;4.80;2.00;;;8.10;99.90;;;-141.84;92.70;18125.31;5053571;28;20304;-58
2022/12/23 02:59:57;;;;;;;6.10;2.13;;;8.10;99.90;;;-141.84;92.99;18090.78;5053997;28;20229;-60
2022/12/23 03:02:27;;;;;;;5.40;2.00;;;8.10;99.90;;;-141.84;93.19;18096.88;5054313;28;20197;-59
2022/12/23 03:04:55;;;;;;;6.03;2.63;;;8.10;99.90;;;-141.84;93.78;18100.94;5053550;28;20697;-60
2022/12/23 03:07:32;;;;;;;5.00;2.03;;;8.10;99.90;;;-141.84;93.52;18090.78;5053631;28;20229;-59
2022/12/23 03:10:13;;;;;;;4.97;2.10;;;8.10;99.90;;;-141.84;93.81;18074.53;5065372;28;20277;-59
2022/12/23 03:12:55;;;;;;;5.63;2.20;;;8.10;99.90;;;-141.84;93.99;18105.00;5070179;28;20228;-59
2022/12/23 03:15:41;;;;;;;3.43;2.20;;;8.10;99.90;;;-141.84;93.99;18080.63;5053571;28;20221;-59
2022/12/23 03:18:24;;;;;;;2.63;1.83;;;8.10;99.90;;;-141.84;94.20;18058.28;5052801;28;20247;-57
2022/12/23 03:21:02;;;;;;;5.83;2.03;;;8.10;99.90;;;-141.84;94.57;18084.69;5053452;28;20186;-59
2022/12/23 03:23:38;;;;;;;4.27;1.87;;;8.00;99.90;;;-141.84;94.91;18058.28;5053834;28;20212;-58
2022/12/23 03:26:14;;;;;;;4.30;2.00;;;8.00;99.90;;;-141.84;95.22;18050.16;5053415;28;20240;-58
2022/12/23 03:28:52;;;;;;;2.97;1.90;;;8.10;99.90;;;-141.84;95.45;18066.41;5052937;28;20225;-59
2022/12/23 03:31:28;;;;;;;5.57;2.27;;;8.00;99.90;;;-141.84;95.35;18050.16;5052625;28;20221;-58
2022/12/23 03:34:05;;;;;;;3.00;1.97;;;8.10;99.90;;;-141.84;95.41;18066.41;5052856;28;20236;-59
2022/12/23 03:36:40;;;;;;;3.33;2.27;;;8.10;99.90;;;-141.84;95.09;18052.19;5051258;28;20224;-59
2022/12/23 03:39:16;;;;;;;5.07;2.20;;;8.10;99.90;;;-141.84;95.20;18048.13;5052975;28;20197;-61
2022/12/23 03:41:52;;;;;;;2.83;2.03;;;8.10;99.90;;;-141.84;95.10;18054.22;5053408;28;20602;-59
2022/12/23 03:44:28;;;;;;;5.20;2.20;;;8.10;99.90;;;-141.84;94.99;18080.63;5053416;28;20205;-59
2022/12/23 03:47:05;;;;;;;2.93;1.87;;;8.10;99.90;;;-141.84;94.54;18078.59;5052997;28;20283;-58
2022/12/23 03:49:41;;;;;;;3.00;1.80;;;8.20;99.90;;;-141.84;94.89;18066.41;5052853;28;20233;-58
2022/12/23 03:52:14;;;;;;;2.97;1.90;;;8.20;99.90;;;-141.84;95.17;18046.09;5052197;28;20236;-59
2022/12/23 03:54:53;;;;;;;4.13;1.87;;;8.10;99.90;;;-141.84;95.38;18046.09;5051590;28;20228;-59
2022/12/23 03:57:28;;;;;;;2.17;1.70;;;8.10;99.90;;;-141.84;95.74;18046.09;5052686;28;20225;-59
2022/12/23 03:59:57;;;;;;;2.37;1.97;;;8.10;99.90;;;-141.84;96.02;18023.75;5052712;28;20188;-56
2022/12/23 04:02:35;;;;;;;5.37;1.80;;;8.10;99.90;;;-141.84;96.06;18031.88;5053548;28;20212;-58
2022/12/23 04:05:24;;;;;;;5.10;2.13;;;8.10;99.90;;;-141.84;95.67;18048.13;5052668;28;20335;-59
2022/12/23 04:07:58;;;;;;;3.27;1.80;;;8.20;99.90;;;-141.84;94.10;18074.53;5052637;28;20229;-59
2022/12/23 04:10:28;;;;;;;3.00;1.50;;;8.30;99.90;;;-141.84;93.22;18054.22;5068092;28;20228;-58
2022/12/23 04:12:56;;;;;;;2.37;1.30;;;8.30;99.90;;;-141.84;93.42;18060.31;5067044;28;20735;-59
2022/12/23 04:15:27;;;;;;;1.70;1.10;;;8.30;99.90;;;-141.84;93.40;18060.31;5052471;28;20231;-59
2022/12/23 04:17:57;;;;;;;1.43;1.10;;;8.30;99.90;;;-141.84;93.53;18082.66;5052307;28;20194;-60
2022/12/23 04:20:27;;;;;;;2.20;1.50;;;8.30;99.90;;;-141.84;93.73;18058.28;5052979;28;20194;-58
2022/12/23 04:22:55;;;;;;;1.80;1.30;;;8.30;99.90;;;-141.84;93.63;18066.41;5052095;28;20237;-59
2022/12/23 04:25:23;;;;;;;1.20;1.00;;;8.30;99.90;;;-141.84;93.75;18094.84;5052461;28;20225;-61
2022/12/23 04:27:51;;;;;;;1.53;1.43;;;8.30;99.90;;;-141.84;93.70;18050.16;5052155;28;20228;-58
2022/12/23 04:30:19;;;;;;;1.50;1.40;;;8.40;99.90;;;-141.84;93.46;18040.00;5052195;28;20232;-59
2022/12/23 04:32:48;;;;;;;2.27;1.60;;;8.40;99.90;;;-141.84;93.32;18060.31;5052630;28;20657;-57
2022/12/23 04:35:16;;;;;;;2.67;1.40;;;8.40;99.90;;;-141.84;93.17;18076.56;5051610;28;20608;-59
2022/12/23 04:37:46;;;;;;;2.73;1.70;;;8.40;99.90;;;-141.84;93.15;18088.75;5052250;28;20221;-59
2022/12/23 04:40:14;;;;;;;3.07;1.77;;;8.40;99.90;;;-141.84;93.05;18052.19;5052128;28;20221;-59
2022/12/23 04:42:42;;;;;;;1.47;1.30;;;8.40;99.90;;;-141.84;92.55;18082.66;5051655;28;20221;-59
2022/12/23 04:45:11;;;;;;;1.57;1.47;;;8.40;99.90;;;-141.84;91.49;18094.84;5051951;28;20201;-57
2022/12/23 04:47:40;;;;;;;2.17;0.90;;;8.50;99.90;;;-141.84;90.74;18090.78;5052014;28;20197;-59
2022/12/23 04:50:13;;;;;;;0.90;0.90;;;8.50;99.90;;;-141.84;90.61;18096.88;5051593;28;20225;-58
2022/12/23 04:52:41;;;;;;;1.57;0.90;;;8.50;99.90;;;-141.84;90.85;18074.53;5051093;28;20229;-58
2022/12/23 04:55:11;;;;;;;1.13;0.90;;;8.50;99.90;;;-141.84;91.17;18078.59;5051453;28;20256;-58
2022/12/23 04:57:40;;;;;;;2.97;1.13;;;8.50;99.90;;;-141.84;91.55;18096.88;5051449;28;20232;-60
2022/12/23 05:00:10;;;;;;;0.93;0.90;;;8.50;99.90;;;-141.84;91.57;18094.84;5051740;28;20197;-59
2022/12/23 05:02:38;;;;;;;2.57;1.00;;;8.50;99.90;;;-141.84;91.03;18109.06;5052047;28;20661;-59
2022/12/23 05:05:07;;;;;;;1.67;0.90;;;8.50;99.90;;;-141.84;89.84;18111.09;5051323;28;20745;-58
2022/12/23 05:07:35;;;;;;;1.03;0.90;;;8.60;99.90;;;-141.84;89.58;18102.97;5051395;28;20923;-60
2022/12/23 05:10:03;;;;;;;3.13;1.17;;;8.60;99.90;;;-141.84;89.18;18102.97;5051264;28;20240;-58
2022/12/23 05:12:33;;;;;;;1.20;0.90;;;8.60;99.90;;;-141.84;88.47;18147.66;5051151;28;20225;-59
2022/12/23 05:15:01;;;;;;;2.13;0.93;;;8.70;99.90;;;-141.84;88.44;18202.50;5051328;28;20201;-60
2022/12/23 05:17:29;;;;;;;1.23;0.90;;;8.70;99.90;;;-141.84;89.24;18121.25;5052009;28;20198;-60
2022/12/23 05:19:57;;;;;;;1.27;0.97;;;8.60;99.90;;;-141.84;89.74;18092.81;5051118;28;20260;-59
2022/12/23 05:22:25;;;;;;;1.40;1.30;;;8.60;99.90;;;-141.84;90.06;18096.88;5051223;28;20225;-58
2022/12/23 05:24:53;;;;;;;2.30;1.63;;;8.60;99.90;;;-141.84;89.89;18115.16;5050959;28;20232;-59
2022/12/23 05:27:22;;;;;;;1.97;1.60;;;8.50;99.90;;;-141.84;88.31;18167.97;5050471;28;20224;-60
2022/12/23 05:29:51;;;;;;;2.03;1.93;;;8.60;99.90;;;-141.84;88.20;18133.44;5051225;28;20230;-59
2022/12/23 05:32:19;;;;;;;1.93;1.50;;;8.60;99.90;;;-141.84;88.35;18123.28;5033452;28;20214;-59
2022/12/23 05:34:47;;;;;;;1.30;1.10;;;8.60;99.90;;;-141.84;88.51;18159.84;5049995;28;20705;-60
2022/12/23 05:37:16;;;;;;;1.07;0.97;;;8.60;99.90;;;-141.84;87.98;18159.84;5030974;28;20230;-58
2022/12/23 05:39:44;;;;;;;1.50;1.40;;;8.60;99.90;;;-141.84;88.45;18176.09;5030999;28;20218;-58
2022/12/23 05:42:12;;;;;;;2.43;1.33;;;8.60;99.90;;;-141.84;88.50;18172.03;5030368;28;20728;-59
2022/12/23 05:44:40;;;;;;;1.73;1.07;;;8.60;99.90;;;-141.84;87.59;18188.28;5031747;28;20210;-57
2022/12/23 05:47:10;;;;;;;0.83;0.83;;;8.60;99.90;;;-141.84;86.17;18182.19;5030844;28;20226;-57
2022/12/23 05:49:38;;;;;;;1.17;1.00;;;8.70;99.90;;;-141.84;86.02;18172.03;5030894;28;20229;-61
2022/12/23 05:52:06;;;;;;;1.17;1.07;;;8.70;99.90;;;-141.84;84.62;18208.59;5030764;28;20241;-59
2022/12/23 05:54:34;;;;;;;1.50;0.90;;;8.90;99.90;;;-141.84;84.11;18220.78;5030538;28;20233;-60
2022/12/23 05:57:02;;;;;;;2.30;1.00;;;8.90;99.90;;;-141.84;85.01;18188.28;5030652;28;20688;-60
2022/12/23 05:59:30;;;;;;;1.83;0.87;;;8.90;99.90;;;-141.84;85.00;18200.47;5031291;28;20214;-59
2022/12/23 06:01:59;;;;;;;1.63;0.90;;;8.80;99.90;;;-141.84;85.06;18220.78;5030790;28;20229;-60
2022/12/23 06:04:29;;;;;;;2.27;0.90;;;8.80;99.90;;;-141.84;84.98;18200.47;5030660;28;20238;-58
2022/12/23 06:06:57;;;;;;;2.97;1.03;;;8.90;99.90;;;-141.84;85.70;18208.59;5050075;28;20614;-59
2022/12/23 06:09:26;;;;;;;1.40;1.30;;;8.80;99.90;;;-141.84;85.50;18214.69;5057297;28;20232;-58
2022/12/23 06:11:54;;;;;;;0.97;0.83;;;8.80;99.90;;;-141.84;85.11;18196.41;5071075;28;20208;-59
2022/12/23 06:14:22;;;;;;;1.20;0.90;;;8.80;99.90;;;-141.84;85.38;18224.84;5052853;28;20208;-59
2022/12/23 06:16:56;;;;;;;1.87;1.40;;;8.80;99.90;;;-141.84;85.33;18230.94;5049827;28;20392;-59
2022/12/23 06:19:27;;;;;;;3.43;1.23;;;8.80;99.90;;;-141.84;85.42;18188.28;5050427;28;20729;-58
2022/12/23 06:21:55;;;;;;;2.23;1.10;;;8.80;99.90;;;-141.84;85.56;18208.59;5050391;28;20240;-59
2022/12/23 06:24:23;;;;;;;2.03;1.23;;;8.80;99.90;;;-141.84;84.89;18253.31;5050654;28;20229;-59
2022/12/23 06:26:51;;;;;;;2.90;1.10;;;8.90;99.90;;;-141.84;85.37;18208.59;5051508;28;20205;-59
2022/12/23 06:29:24;;;;;;;4.33;1.10;;;8.90;99.90;;;-141.84;85.01;18210.63;5050570;28;20302;-59
2022/12/23 06:31:52;;;;;;;1.33;1.13;;;8.90;99.90;;;-141.84;85.57;18159.84;5050379;28;20257;-59
2022/12/23 06:34:21;;;;;;;2.13;1.10;;;8.90;99.90;;;-141.84;85.77;18249.25;5050359;28;20283;-59
2022/12/23 06:36:50;;;;;;;1.83;1.30;;;8.90;99.90;;;-141.84;85.18;18241.13;5050291;28;20260;-59
2022/12/23 06:39:18;;;;;;;1.77;1.40;;;8.90;99.90;;;-141.84;84.69;18255.34;5050128;28;20716;-60
2022/12/23 06:41:46;;;;;;;2.30;1.50;;;8.90;99.90;;;-141.84;84.57;18261.44;5051000;28;20212;-58
2022/12/23 06:44:15;;;;;;;1.50;1.10;;;8.90;99.90;;;-141.84;84.65;18263.47;5050292;28;20229;-59
2022/12/23 06:46:43;;;;;;;1.67;1.43;;;8.90;99.90;;;-141.84;84.88;18235.00;5050261;28;20400;-59
2022/12/23 06:49:11;;;;;;;2.40;1.30;;;8.90;99.90;;;-141.84;84.88;18255.34;5050191;28;20228;-59
2022/12/23 06:51:41;;;;;;;2.70;1.60;;;8.90;99.90;;;-141.84;85.15;18232.97;5050090;28;20866;-59
2022/12/23 06:54:11;;;;;;;1.37;1.27;;;8.90;99.90;;;-141.84;85.36;18257.38;5050328;28;20205;-66
2022/12/23 06:56:40;;;;;;;2.80;1.40;;;8.80;99.90;;;-141.84;85.29;18228.91;5050857;28;20216;-60
2022/12/23 06:59:08;;;;;;;1.37;1.27;;;8.80;99.90;;;-141.84;84.39;18249.25;5050116;28;20656;-59
2022/12/23 07:01:36;;;;;;;1.53;0.80;;;8.90;99.90;;;-141.84;84.19;18267.53;5050552;28;20712;-60
2022/12/23 07:04:05;;;;;;;1.20;0.97;;;8.90;99.90;;;-141.84;84.58;18222.81;5050591;28;20237;-58
2022/12/23 07:06:33;;;;;;;1.17;1.10;;;8.90;99.90;;;-141.84;84.99;18247.22;5050148;28;20599;-60
2022/12/23 07:09:01;;;;;;;1.23;1.10;;;8.90;99.90;;;-141.84;84.80;18235.00;5050666;28;20198;-59
2022/12/23 07:11:31;;;;;;;1.63;1.20;;;8.90;99.90;;;-141.84;83.91;18241.13;5050587;28;20597;-59
2022/12/23 07:13:59;;;;;;;1.73;1.17;;;8.90;99.90;;;-141.84;83.69;18279.72;5049554;28;20885;-60
2022/12/23 07:16:27;;;;;;;1.73;1.20;;;9.00;99.90;;;-141.84;83.00;18287.84;5050065;28;20233;-59
2022/12/23 07:18:55;;;;;;;1.50;1.27;;;9.00;99.90;;;-141.84;83.32;18249.25;5049852;28;20323;-60
2022/12/23 07:21:24;;;;;;;1.77;1.17;;;9.00;99.90;;;-141.84;83.62;18263.47;5050062;28;20221;-59
2022/12/23 07:23:57;;;;;;;2.30;1.20;;;9.00;99.90;;;-141.84;83.89;18269.56;5049784;28;20655;-59
2022/12/23 07:26:25;;;;;;;1.40;1.30;;;9.00;99.90;;;-141.84;84.26;18271.59;5050868;28;20206;-59
2022/12/23 07:28:54;;;;;;;1.57;1.27;;;8.90;99.90;;;-141.84;84.60;18259.41;5048751;28;20229;-54
2022/12/23 07:31:23;;;;;;;1.47;1.20;;;8.90;99.90;;;-141.84;84.44;18241.13;5053437;28;20228;-57
2022/12/23 07:33:51;;;;;;;1.30;1.20;;;8.90;99.90;;;-141.84;84.39;18265.50;5053327;28;20321;-56
2022/12/23 07:36:19;;;;;;;1.33;1.23;;;8.90;99.90;;;-141.84;83.92;18253.31;5039939;28;20718;-57
2022/12/23 07:38:50;;;;;;;3.10;1.40;;;9.00;99.90;;;-141.84;84.33;18273.63;5033908;28;20205;-58
2022/12/23 07:41:19;;;;;;;1.40;1.30;;;8.90;99.90;;;-141.84;84.49;18263.47;5033293;28;20249;-58
2022/12/23 07:43:47;;;;;;;1.60;1.23;;;8.90;99.90;;;-141.84;83.33;18271.59;5033309;28;20843;-58
2022/12/23 07:46:17;;;;;;;1.57;1.30;;;9.00;99.90;;;-141.84;83.93;18281.75;5033240;28;20230;-58
2022/12/23 07:48:45;;;;;;;1.20;1.10;;;9.00;99.90;;;-141.84;84.23;18257.38;5033487;28;20233;-59
2022/12/23 07:51:13;;;;;;;1.60;1.40;;;9.00;99.90;;;-141.84;83.41;18271.59;5032641;28;20728;-59
2022/12/23 07:53:42;;;;;;;1.57;1.23;;;9.10;99.90;;;-141.84;82.59;18281.75;5033910;28;20190;-59
2022/12/23 07:56:10;;;;;;;1.73;1.30;;;9.20;99.90;;;-141.84;83.13;18300.03;5033248;28;20226;-57
2022/12/23 07:58:38;;;;;;;1.63;1.53;;;9.20;99.90;;;-141.84;83.60;18310.19;5043285;28;20241;-57
2022/12/23 08:01:07;;;;;;;1.87;1.70;;;9.10;99.90;;;-141.84;82.83;18285.81;5052925;28;20579;-58
2022/12/23 08:03:37;;;;;;;2.07;1.60;;;9.20;99.90;;;-141.84;82.47;18314.25;5053085;28;20312;-58
2022/12/23 08:06:11;;;;;;;1.30;1.20;;;9.20;99.90;;;-141.84;83.36;18310.19;5051617;28;20202;-58
2022/12/23 08:08:41;;;;;;;1.80;1.47;;;9.10;99.90;;;-141.84;84.44;18267.53;5053637;28;20186;-58
2022/12/23 08:11:11;;;;;;;3.00;1.47;;;9.00;99.90;;;-141.84;83.46;18360.97;5072486;28;20224;-57
2022/12/23 08:13:42;;;;;;;2.37;1.40;;;9.10;99.90;;;-141.84;83.54;18295.97;5061632;28;20229;-58
2022/12/23 08:16:12;;;;;;;1.60;1.40;;;9.10;99.90;;;-141.84;83.32;18281.75;5052450;28;20225;-60
2022/12/23 08:18:42;;;;;;;2.33;1.50;;;9.20;99.90;;;-141.84;83.21;18293.94;5052242;28;20229;-57
2022/12/23 08:21:14;;;;;;;1.60;1.33;;;9.10;99.90;;;-141.84;83.76;18277.69;5051823;28;20680;-60
2022/12/23 08:23:43;;;;;;;2.10;1.63;;;9.10;99.90;;;-141.84;83.34;18334.56;5053056;28;20216;-59
2022/12/23 08:26:14;;;;;;;1.47;1.37;;;9.20;99.90;;;-141.84;82.78;18314.25;5052046;28;20229;-58
2022/12/23 08:28:44;;;;;;;1.70;1.60;;;9.30;99.90;;;-141.84;82.08;18336.59;5052121;28;20229;-59
2022/12/23 08:31:16;;;;;;;2.80;1.80;;;9.30;99.90;;;-141.84;82.74;18322.38;5051822;28;20244;-65
2022/12/23 08:33:48;;;;;;;2.23;1.60;;;9.30;99.90;;;-141.84;82.71;18326.44;5052029;28;20271;-64
2022/12/23 08:36:20;;;;;;;1.67;1.50;;;9.40;99.90;;;-141.84;81.54;18342.69;5037731;28;20234;-65
2022/12/23 08:38:52;;;;;;;2.13;1.30;;;9.40;99.90;;;-141.84;81.69;18334.56;5041116;28;20209;-65
2022/12/23 08:41:24;;;;;;;1.93;1.50;;;9.50;99.90;;;-141.84;81.22;18328.47;5051014;28;20216;-63
2022/12/23 08:43:52;;;;;;;4.63;1.90;;;9.50;99.90;;;-141.84;82.21;18338.63;5039122;28;20226;-65
2022/12/23 08:46:21;;;;;;;2.17;1.97;;;9.50;99.90;;;-141.84;82.53;18324.41;5040607;28;20221;-65
2022/12/23 08:48:51;;;;;;;1.80;1.70;;;9.40;99.90;;;-141.84;81.88;18363.00;5048276;28;20234;-64
2022/12/23 08:51:23;;;;;;;1.87;1.70;;;9.50;99.90;;;-141.84;81.29;18344.72;5043785;28;20236;-63
2022/12/23 08:53:53;;;;;;;2.27;2.03;;;9.50;99.90;;;-141.84;81.45;18350.81;5051847;28;20589;-64
2022/12/23 08:56:30;;;;;;;1.80;1.70;;;9.60;99.90;;;-141.84;81.43;18377.22;5052317;28;20285;-64
2022/12/23 08:58:59;;;;;;;2.00;1.80;;;9.60;99.90;;;-141.84;81.17;18365.03;5051747;28;20237;-65
2022/12/23 09:01:31;;;;;;;2.53;2.13;;;9.60;99.90;;;-141.84;81.33;18407.69;5050981;28;20748;-64
2022/12/23 09:04:02;;;;;;;2.30;2.10;;;9.60;99.90;;;-141.84;81.75;18358.94;5051781;28;20229;-66
2022/12/23 09:06:35;;;;;;;2.80;2.10;;;9.60;99.90;;;-141.84;81.06;18391.44;5051169;28;20225;-64
2022/12/23 09:09:05;;;;;;;2.80;1.97;;;9.60;99.90;;;-141.84;81.13;18391.44;5055622;28;20280;-64
2022/12/23 09:11:34;;;;;;;3.67;2.23;;;9.70;99.90;;;-141.84;80.98;18373.16;5072107;28;20248;-63
2022/12/23 09:14:03;;;;;;;2.97;2.07;;;9.70;99.90;;;-141.84;80.85;18336.59;5056450;28;20648;-64
2022/12/23 09:16:32;;;;;;;2.53;1.97;;;9.70;99.90;;;-141.84;80.55;18399.56;5050234;28;20210;-63
2022/12/23 09:19:01;;;;;;;1.70;1.60;;;9.70;99.90;;;-141.84;81.35;18371.13;5051098;28;20280;-64
2022/12/23 09:21:30;;;;;;;2.00;1.60;;;9.70;99.90;;;-141.84;80.68;18375.19;5036872;28;20256;-64
2022/12/23 09:23:58;;;;;;;2.20;1.87;;;9.70;99.90;;;-141.84;81.09;18395.50;5031314;28;20748;-64
2022/12/23 09:26:29;;;;;;;2.00;1.80;;;9.70;99.90;;;-141.84;80.42;18411.75;5032013;28;20578;-65
2022/12/23 09:28:58;;;;;;;3.73;1.87;;;9.80;99.90;;;-141.84;80.21;18395.50;5031296;28;20230;-65
2022/12/23 09:31:26;;;;;;;1.70;1.60;;;9.80;99.90;;;-141.84;80.33;18444.28;5030467;28;20230;-65
2022/12/23 09:34:05;;;;;;;1.93;1.73;;;9.90;99.90;;;-141.84;78.94;18425.97;5031310;28;20680;-64
2022/12/23 09:36:34;;;;;;;2.80;1.80;;;10.00;99.90;;;-141.84;78.20;18452.41;5048582;28;20295;-66
2022/12/23 09:39:02;;;;;;;1.50;1.40;;;10.10;99.90;;;-141.84;78.97;18446.31;5051481;28;20658;-67
2022/12/23 09:42:02;;;;;;;1.83;1.63;;;10.10;99.90;;;-141.84;79.51;18438.19;5052038;28;20284;-66
2022/12/23 09:44:55;;;;;;;2.70;2.00;;;10.10;99.90;;;-141.84;79.47;18454.44;5051648;28;20205;-65
2022/12/23 09:47:28;;;;;;;2.43;2.23;;;10.00;99.90;;;-141.84;79.44;18436.16;5051283;28;20256;-64
2022/12/23 09:50:01;;;;;;;2.40;2.10;;;10.00;99.90;;;-141.84;79.49;18462.56;5050343;28;20229;-64
2022/12/23 09:52:42;;;;;;;2.90;2.10;;;10.00;99.90;;;-141.84;79.27;18446.31;5030304;28;20226;-64
2022/12/23 09:55:13;;;;;;;3.07;2.27;;;10.00;99.90;;;-141.84;79.86;18440.22;5044077;28;20232;-65
2022/12/23 09:57:50;;;;;;;2.40;2.00;;;10.00;99.90;;;-141.84;79.85;18460.53;5050648;28;20292;-65
2022/12/23 10:00:21;;;;;;;2.17;1.97;;;10.00;99.90;;;-141.84;78.94;18462.56;5050369;28;20221;-65
2022/12/23 10:03:15;;;;;;;2.67;2.47;;;10.10;99.90;;;-141.84;78.59;18464.59;5051295;28;20185;-64
2022/12/23 10:06:01;;;;;;;2.70;2.50;;;10.10;99.90;;;-141.84;78.52;18478.81;5051018;28;20225;-65
2022/12/23 10:08:36;;;;;;;2.77;2.00;;;10.20;99.90;;;-141.84;79.05;18497.09;5051419;28;20213;-65
2022/12/23 10:11:13;;;;;;;3.77;2.37;;;10.10;99.90;;;-141.84;79.45;18452.41;5031269;28;20236;-65
2022/12/23 10:13:46;;;;;;;2.20;2.00;;;10.10;99.90;;;-141.84;77.92;18509.28;5041450;28;20240;-64
2022/12/23 10:16:20;;;;;;;4.13;2.33;;;10.20;99.90;;;-141.84;76.62;18519.44;5050386;28;20225;-64
2022/12/23 10:18:56;;;;;;;2.30;2.10;;;10.40;99.90;;;-141.84;77.76;18501.16;5050880;28;20239;-65
2022/12/23 10:21:33;;;;;;;2.70;2.30;;;10.30;99.90;;;-141.84;77.87;18505.22;5037698;28;20252;-65
2022/12/23 10:24:11;;;;;;;2.63;2.43;;;10.30;99.90;;;-141.84;78.27;18509.28;5031153;28;20193;-64
2022/12/23 10:26:51;;;;;;;2.80;2.37;;;10.30;99.90;;;-141.84;78.13;18501.16;5031609;28;20189;-65
2022/12/23 10:29:22;;;;;;;2.80;2.37;;;10.30;99.90;;;-141.84;78.20;18545.84;5031179;28;20233;-65
2022/12/23 10:32:11;;;;;;;5.60;4.23;;;10.30;99.90;;;-141.84;78.42;18501.16;5030300;28;20733;-65
2022/12/23 10:34:51;;;;;;;3.80;3.40;;;10.30;99.90;;;-141.84;77.58;18503.19;5031544;28;20310;-64
2022/12/23 10:37:30;;;;;;;3.67;2.07;;;10.30;99.90;;;-141.84;77.99;18513.34;5030503;28;20713;-63
2022/12/23 10:40:19;;;;;;;3.60;2.60;;;10.30;99.90;;;-141.84;77.83;18525.53;5030948;28;20225;-64
2022/12/23 10:43:08;;;;;;;2.97;2.50;;;10.30;99.90;;;-141.84;77.88;18519.44;5030044;28;20229;-62
2022/12/23 10:45:52;;;;;;;4.80;2.53;;;10.30;99.90;;;-141.84;77.00;18539.75;5012903;28;20226;-65
2022/12/23 10:48:39;;;;;;;4.67;3.90;;;10.50;99.90;;;-141.84;76.11;18584.47;5030725;28;20221;-65
2022/12/23 10:51:19;;;;;;;3.23;2.90;;;10.70;99.90;;;-141.84;76.01;18590.56;5030610;28;20213;-65
2022/12/23 10:53:54;;;;;;;3.77;2.80;;;10.80;99.90;;;-141.84;74.47;18627.13;5032403;28;20206;-64
2022/12/23 10:56:23;;;;;;;4.40;2.97;;;10.90;99.90;;;-141.84;74.64;18647.44;5050841;28;20209;-65
2022/12/23 10:58:58;;;;;;;4.03;3.60;;;11.00;99.90;;;-141.84;74.04;18651.50;5049935;28;20644;-65